createdAt,value
2023-05-07T00:00:19.633Z,24.61
2023-05-07T00:01:20.244Z,24.59
2023-05-07T00:02:19.649Z,24.60
2023-05-07T00:03:19.720Z,24.60
2023-05-07T00:04:19.990Z,24.59
2023-05-07T00:05:19.882Z,24.59
2023-05-07T00:06:19.686Z,24.59
2023-05-07T00:07:19.736Z,24.59
2023-05-07T00:08:19.746Z,24.59
2023-05-07T00:09:19.731Z,24.58
2023-05-07T00:10:19.760Z,24.59
2023-05-07T00:11:19.765Z,24.57
2023-05-07T00:12:19.733Z,24.58
2023-05-07T00:13:19.829Z,24.57
2023-05-07T00:14:19.806Z,24.58
2023-05-07T00:15:19.870Z,24.58
2023-05-07T00:16:19.936Z,24.58
2023-05-07T00:17:19.881Z,24.57
2023-05-07T00:18:19.961Z,24.57
2023-05-07T00:19:20.011Z,24.57
2023-05-07T00:20:20.051Z,24.57
2023-05-07T00:21:20.076Z,24.57
2023-05-07T00:22:20.076Z,24.56
2023-05-07T00:23:20.063Z,24.57
2023-05-07T00:24:20.069Z,24.57
2023-05-07T00:25:20.099Z,24.57
2023-05-07T00:26:20.109Z,24.56
2023-05-07T00:27:20.115Z,24.56
2023-05-07T00:28:20.164Z,24.56
2023-05-07T00:29:20.206Z,24.56
2023-05-07T00:30:20.192Z,24.56
2023-05-07T00:31:20.195Z,24.56
2023-05-07T00:32:20.226Z,24.56
2023-05-07T00:33:20.248Z,24.56
2023-05-07T00:34:20.263Z,24.56
2023-05-07T00:35:20.273Z,24.55
2023-05-07T00:36:20.348Z,24.56
2023-05-07T00:37:20.325Z,24.56
2023-05-07T00:38:20.398Z,24.55
2023-05-07T00:39:20.400Z,24.55
2023-05-07T00:40:20.410Z,24.55
2023-05-07T00:41:20.459Z,24.55
2023-05-07T00:42:20.448Z,24.55
2023-05-07T00:43:20.517Z,24.54
2023-05-07T00:44:20.530Z,24.54
2023-05-07T00:45:20.546Z,24.55
2023-05-07T00:46:20.611Z,24.55
2023-05-07T00:47:20.629Z,24.53
2023-05-07T00:48:20.630Z,24.54
2023-05-07T00:49:20.683Z,24.54
2023-05-07T00:50:20.712Z,24.53
2023-05-07T00:51:20.748Z,24.54
2023-05-07T00:52:20.794Z,24.53
2023-05-07T00:53:20.807Z,24.54
2023-05-07T00:54:20.864Z,24.53
2023-05-07T00:55:20.887Z,24.53
2023-05-07T00:56:20.900Z,24.53
2023-05-07T00:57:20.932Z,24.53
2023-05-07T00:58:20.974Z,24.53
2023-05-07T00:59:21.040Z,24.53
2023-05-07T01:00:21.148Z,24.53
2023-05-07T01:01:21.187Z,24.53
2023-05-07T01:02:21.212Z,24.53
2023-05-07T01:03:21.168Z,24.52
2023-05-07T01:04:21.259Z,24.52
2023-05-07T01:05:21.301Z,24.52
2023-05-07T01:06:21.299Z,24.51
2023-05-07T01:07:21.382Z,24.52
2023-05-07T01:08:21.413Z,24.52
2023-05-07T01:09:21.366Z,24.52
2023-05-07T01:10:21.369Z,24.52
2023-05-07T01:11:21.423Z,24.52
2023-05-07T01:12:21.446Z,24.51
2023-05-07T01:13:21.587Z,24.52
2023-05-07T01:14:21.501Z,24.52
2023-05-07T01:15:21.470Z,24.51
2023-05-07T01:16:21.653Z,24.51
2023-05-07T01:17:21.712Z,24.51
2023-05-07T01:18:21.573Z,24.51
2023-05-07T01:19:21.620Z,24.50
2023-05-07T01:20:21.671Z,24.51
2023-05-07T01:21:21.722Z,24.50
2023-05-07T01:22:21.741Z,24.50
2023-05-07T01:23:21.764Z,24.51
2023-05-07T01:24:21.894Z,24.51
2023-05-07T01:25:21.891Z,24.50
2023-05-07T01:26:21.881Z,24.51
2023-05-07T01:27:21.915Z,24.51
2023-05-07T01:28:21.945Z,24.50
2023-05-07T01:29:21.992Z,24.50
2023-05-07T01:30:22.013Z,24.50
2023-05-07T01:31:22.081Z,24.50
2023-05-07T01:32:22.039Z,24.50
2023-05-07T01:33:22.053Z,24.50
2023-05-07T01:34:22.121Z,24.50
2023-05-07T01:35:22.131Z,24.49
2023-05-07T01:36:22.134Z,24.50
2023-05-07T01:37:22.167Z,24.50
2023-05-07T01:38:22.168Z,24.50
2023-05-07T01:39:22.232Z,24.50
2023-05-07T01:40:22.216Z,24.49
2023-05-07T01:41:22.260Z,24.50
2023-05-07T01:42:22.338Z,24.49
2023-05-07T01:43:22.402Z,24.49
2023-05-07T01:44:22.386Z,24.48
2023-05-07T01:45:22.431Z,24.48
2023-05-07T01:46:22.505Z,24.49
2023-05-07T01:47:22.546Z,24.49
2023-05-07T01:48:22.515Z,24.49
2023-05-07T01:49:22.528Z,24.49
2023-05-07T01:50:22.619Z,24.48
2023-05-07T01:51:22.578Z,24.48
2023-05-07T01:52:22.777Z,24.48
2023-05-07T01:53:22.660Z,24.48
2023-05-07T01:54:22.693Z,24.48
2023-05-07T01:55:22.723Z,24.48
2023-05-07T01:56:22.768Z,24.48
2023-05-07T01:57:22.844Z,24.48
2023-05-07T01:58:22.911Z,24.48
2023-05-07T01:59:22.902Z,24.48
2023-05-07T02:00:22.962Z,24.48
2023-05-07T02:01:23.062Z,24.48
2023-05-07T02:02:23.082Z,24.48
2023-05-07T02:03:23.190Z,24.47
2023-05-07T02:04:23.027Z,24.48
2023-05-07T02:05:23.072Z,24.48
2023-05-07T02:06:23.075Z,24.47
2023-05-07T02:07:23.128Z,24.47
2023-05-07T02:08:23.139Z,24.47
2023-05-07T02:09:23.179Z,24.47
2023-05-07T02:10:23.171Z,24.47
2023-05-07T02:11:23.208Z,24.47
2023-05-07T02:12:23.218Z,24.47
2023-05-07T02:13:23.442Z,24.47
2023-05-07T02:14:23.286Z,24.46
2023-05-07T02:15:23.323Z,24.47
2023-05-07T02:16:23.318Z,24.46
2023-05-07T02:17:23.397Z,24.46
2023-05-07T02:18:23.363Z,24.47
2023-05-07T02:19:23.450Z,24.46
2023-05-07T02:20:23.455Z,24.46
2023-05-07T02:21:23.517Z,24.46
2023-05-07T02:22:23.565Z,24.46
2023-05-07T02:23:23.577Z,24.46
2023-05-07T02:24:23.627Z,24.45
2023-05-07T02:25:23.653Z,24.45
2023-05-07T02:26:23.662Z,24.45
2023-05-07T02:27:23.695Z,24.45
2023-05-07T02:28:23.817Z,24.45
2023-05-07T02:29:23.791Z,24.45
2023-05-07T02:30:23.782Z,24.45
2023-05-07T02:31:23.886Z,24.45
2023-05-07T02:32:23.825Z,24.45
2023-05-07T02:33:23.856Z,24.45
2023-05-07T02:34:23.939Z,24.45
2023-05-07T02:35:23.922Z,24.43
2023-05-07T02:36:23.981Z,24.44
2023-05-07T02:37:24.046Z,24.44
2023-05-07T02:38:24.037Z,24.43
2023-05-07T02:39:24.115Z,24.44
2023-05-07T02:40:24.109Z,24.44
2023-05-07T02:41:24.122Z,24.44
2023-05-07T02:42:24.121Z,24.44
2023-05-07T02:43:24.172Z,24.43
2023-05-07T02:44:24.258Z,24.44
2023-05-07T02:45:24.266Z,24.43
2023-05-07T02:46:24.417Z,24.44
2023-05-07T02:47:24.368Z,24.43
2023-05-07T02:48:24.299Z,24.43
2023-05-07T02:49:24.385Z,24.43
2023-05-07T02:50:24.393Z,24.43
2023-05-07T02:51:26.145Z,24.44
2023-05-07T02:52:24.476Z,24.42
2023-05-07T02:53:24.507Z,24.42
2023-05-07T02:54:24.568Z,24.43
2023-05-07T02:55:24.556Z,24.42
2023-05-07T02:56:24.580Z,24.42
2023-05-07T02:57:24.636Z,24.42
2023-05-07T02:58:24.652Z,24.42
2023-05-07T02:59:24.677Z,24.43
2023-05-07T03:00:24.776Z,24.42
2023-05-07T03:01:24.842Z,24.42
2023-05-07T03:02:24.801Z,24.42
2023-05-07T03:03:24.861Z,24.42
2023-05-07T03:04:25.013Z,24.41
2023-05-07T03:05:25.002Z,24.41
2023-05-07T03:06:25.040Z,24.41
2023-05-07T03:07:25.074Z,24.41
2023-05-07T03:08:25.186Z,24.41
2023-05-07T03:09:25.184Z,24.41
2023-05-07T03:10:25.204Z,24.42
2023-05-07T03:11:25.250Z,24.41
2023-05-07T03:12:25.252Z,24.42
2023-05-07T03:13:25.337Z,24.41
2023-05-07T03:14:25.317Z,24.41
2023-05-07T03:15:25.365Z,24.41
2023-05-07T03:16:25.532Z,24.41
2023-05-07T03:17:25.512Z,24.41
2023-05-07T03:18:25.592Z,24.41
2023-05-07T03:19:25.571Z,24.40
2023-05-07T03:20:25.673Z,24.41
2023-05-07T03:21:25.608Z,24.40
2023-05-07T03:22:25.640Z,24.39
2023-05-07T03:23:25.689Z,24.40
2023-05-07T03:24:25.688Z,24.40
2023-05-07T03:25:25.729Z,24.40
2023-05-07T03:26:25.774Z,24.40
2023-05-07T03:27:25.783Z,24.40
2023-05-07T03:28:25.798Z,24.40
2023-05-07T03:29:25.892Z,24.40
2023-05-07T03:30:25.938Z,24.40
2023-05-07T03:31:25.966Z,24.40
2023-05-07T03:32:26.088Z,24.40
2023-05-07T03:33:26.027Z,24.40
2023-05-07T03:34:26.118Z,24.40
2023-05-07T03:35:26.074Z,24.39
2023-05-07T03:36:26.091Z,24.40
2023-05-07T03:37:26.115Z,24.39
2023-05-07T03:38:26.157Z,24.39
2023-05-07T03:39:26.217Z,24.39
2023-05-07T03:40:26.237Z,24.39
2023-05-07T03:41:26.282Z,24.39
2023-05-07T03:42:26.274Z,24.39
2023-05-07T03:43:26.346Z,24.40
2023-05-07T03:44:26.337Z,24.39
2023-05-07T03:45:26.374Z,24.40
2023-05-07T03:46:26.472Z,24.39
2023-05-07T03:47:26.521Z,24.39
2023-05-07T03:48:26.542Z,24.39
2023-05-07T03:49:26.475Z,24.40
2023-05-07T03:50:26.542Z,24.38
2023-05-07T03:51:26.578Z,24.39
2023-05-07T03:52:26.601Z,24.39
2023-05-07T03:53:26.642Z,24.38
2023-05-07T03:54:26.654Z,24.39
2023-05-07T03:55:26.680Z,24.38
2023-05-07T03:56:26.691Z,24.38
2023-05-07T03:57:26.750Z,24.38
2023-05-07T03:58:26.811Z,24.38
2023-05-07T03:59:26.853Z,24.38
2023-05-07T04:00:26.972Z,24.39
2023-05-07T04:01:26.972Z,24.39
2023-05-07T04:02:27.131Z,24.39
2023-05-07T04:03:27.164Z,24.39
2023-05-07T04:04:27.211Z,24.38
2023-05-07T04:05:27.213Z,24.39
2023-05-07T04:06:27.217Z,24.39
2023-05-07T04:07:27.276Z,24.39
2023-05-07T04:08:27.291Z,24.39
2023-05-07T04:09:27.349Z,24.38
2023-05-07T04:10:27.332Z,24.39
2023-05-07T04:11:27.411Z,24.39
2023-05-07T04:12:27.392Z,24.38
2023-05-07T04:13:27.429Z,24.39
2023-05-07T04:14:27.473Z,24.39
2023-05-07T04:15:27.507Z,24.39
2023-05-07T04:16:27.590Z,24.39
2023-05-07T04:17:27.598Z,24.39
2023-05-07T04:18:27.645Z,24.39
2023-05-07T04:19:27.683Z,24.39
2023-05-07T04:20:27.674Z,24.40
2023-05-07T04:21:27.721Z,24.39
2023-05-07T04:22:27.793Z,24.40
2023-05-07T04:23:27.802Z,24.40
2023-05-07T04:24:27.805Z,24.40
2023-05-07T04:25:27.890Z,24.40
2023-05-07T04:26:27.915Z,24.42
2023-05-07T04:27:27.945Z,24.41
2023-05-07T04:28:27.971Z,24.42
2023-05-07T04:29:28.047Z,24.42
2023-05-07T04:30:28.075Z,24.42
2023-05-07T04:31:28.162Z,24.43
2023-05-07T04:32:28.193Z,24.43
2023-05-07T04:33:28.155Z,24.44
2023-05-07T04:34:28.185Z,24.45
2023-05-07T04:35:28.227Z,24.46
2023-05-07T04:36:28.338Z,24.46
2023-05-07T04:37:28.303Z,24.47
2023-05-07T04:38:28.352Z,24.47
2023-05-07T04:39:28.355Z,24.49
2023-05-07T04:40:28.435Z,24.51
2023-05-07T04:41:28.416Z,24.53
2023-05-07T04:42:28.443Z,24.56
2023-05-07T04:43:28.481Z,24.57
2023-05-07T04:44:28.519Z,24.60
2023-05-07T04:45:28.556Z,24.62
2023-05-07T04:46:28.696Z,24.64
2023-05-07T04:47:28.631Z,24.67
2023-05-07T04:48:28.579Z,24.69
2023-05-07T04:49:28.592Z,24.74
2023-05-07T04:50:28.638Z,24.79
2023-05-07T04:51:28.653Z,24.81
2023-05-07T04:52:28.752Z,24.84
2023-05-07T04:53:28.649Z,24.84
2023-05-07T04:54:28.665Z,24.84
2023-05-07T04:55:28.687Z,24.85
2023-05-07T04:56:28.680Z,24.87
2023-05-07T04:57:28.713Z,24.90
2023-05-07T04:58:28.693Z,24.92
2023-05-07T04:59:28.701Z,24.95
2023-05-07T05:00:28.694Z,24.98
2023-05-07T05:01:28.815Z,25.02
2023-05-07T05:02:28.855Z,25.05
2023-05-07T05:03:28.777Z,25.07
2023-05-07T05:04:28.761Z,25.12
2023-05-07T05:05:28.771Z,25.18
2023-05-07T05:06:28.805Z,25.22
2023-05-07T05:07:28.830Z,25.27
2023-05-07T05:08:29.048Z,25.30
2023-05-07T05:09:28.840Z,25.33
2023-05-07T05:10:28.820Z,25.34
2023-05-07T05:11:28.777Z,25.34
2023-05-07T05:12:28.869Z,25.35
2023-05-07T05:13:28.802Z,25.38
2023-05-07T05:14:28.794Z,25.42
2023-05-07T05:15:28.807Z,25.48
2023-05-07T05:16:28.821Z,25.53
2023-05-07T05:17:28.843Z,25.56
2023-05-07T05:18:28.837Z,25.56
2023-05-07T05:19:28.840Z,25.55
2023-05-07T05:20:28.805Z,25.55
2023-05-07T05:21:28.841Z,25.53
2023-05-07T05:22:28.859Z,25.51
2023-05-07T05:23:28.882Z,25.51
2023-05-07T05:24:28.855Z,25.51
2023-05-07T05:25:28.818Z,25.52
2023-05-07T05:26:28.821Z,25.52
2023-05-07T05:27:28.842Z,25.51
2023-05-07T05:28:28.803Z,25.49
2023-05-07T05:29:28.823Z,25.48
2023-05-07T05:30:28.824Z,25.48
2023-05-07T05:31:28.918Z,25.47
2023-05-07T05:32:28.873Z,25.47
2023-05-07T05:33:28.838Z,25.47
2023-05-07T05:34:28.848Z,25.47
2023-05-07T05:35:28.812Z,25.46
2023-05-07T05:36:28.782Z,25.44
2023-05-07T05:37:28.848Z,25.43
2023-05-07T05:38:28.825Z,25.43
2023-05-07T05:39:28.816Z,25.44
2023-05-07T05:40:28.822Z,25.45
2023-05-07T05:41:28.836Z,25.46
2023-05-07T05:42:28.845Z,25.49
2023-05-07T05:43:28.839Z,25.53
2023-05-07T05:44:28.863Z,25.57
2023-05-07T05:45:28.899Z,25.58
2023-05-07T05:46:28.934Z,25.59
2023-05-07T05:47:28.956Z,25.60
2023-05-07T05:48:28.911Z,25.59
2023-05-07T05:49:28.975Z,25.58
2023-05-07T05:50:28.986Z,25.57
2023-05-07T05:51:29.063Z,25.57
2023-05-07T05:52:29.153Z,25.56
2023-05-07T05:53:29.211Z,25.55
2023-05-07T05:54:29.242Z,25.52
2023-05-07T05:55:29.296Z,25.48
2023-05-07T05:56:29.362Z,25.46
2023-05-07T05:57:29.346Z,25.44
2023-05-07T05:58:29.396Z,25.41
2023-05-07T05:59:29.521Z,25.41
2023-05-07T06:00:29.488Z,25.39
2023-05-07T06:01:29.555Z,25.38
2023-05-07T06:02:29.492Z,25.38
2023-05-07T06:03:29.516Z,25.38
2023-05-07T06:04:29.485Z,25.39
2023-05-07T06:05:29.550Z,25.40
2023-05-07T06:06:29.575Z,25.39
2023-05-07T06:07:29.581Z,25.39
2023-05-07T06:08:29.628Z,25.40
2023-05-07T06:09:29.655Z,25.41
2023-05-07T06:10:29.647Z,25.41
2023-05-07T06:11:29.722Z,25.41
2023-05-07T06:12:29.827Z,25.41
2023-05-07T06:13:29.896Z,25.41
2023-05-07T06:14:29.771Z,25.42
2023-05-07T06:15:29.782Z,25.42
2023-05-07T06:16:29.827Z,25.43
2023-05-07T06:17:29.809Z,25.44
2023-05-07T06:18:29.789Z,25.45
2023-05-07T06:19:29.838Z,25.45
2023-05-07T06:20:29.893Z,25.46
2023-05-07T06:21:29.917Z,25.46
2023-05-07T06:22:29.962Z,25.46
2023-05-07T06:23:30.049Z,25.46
2023-05-07T06:24:30.050Z,25.47
2023-05-07T06:25:30.079Z,25.47
2023-05-07T06:26:30.122Z,25.47
2023-05-07T06:27:30.133Z,25.47
2023-05-07T06:28:30.269Z,25.49
2023-05-07T06:29:30.238Z,25.49
2023-05-07T06:30:30.282Z,25.49
2023-05-07T06:31:30.419Z,25.49
2023-05-07T06:32:30.461Z,25.49
2023-05-07T06:33:30.473Z,25.49
2023-05-07T06:34:30.516Z,25.50
2023-05-07T06:35:30.594Z,25.49
2023-05-07T06:36:30.649Z,25.49
2023-05-07T06:37:30.687Z,25.48
2023-05-07T06:38:30.762Z,25.48
2023-05-07T06:39:30.774Z,25.48
2023-05-07T06:40:30.845Z,25.48
2023-05-07T06:41:30.920Z,25.49
2023-05-07T06:42:30.932Z,25.49
2023-05-07T06:43:30.984Z,25.49
2023-05-07T06:44:31.107Z,25.48
2023-05-07T06:45:31.092Z,25.49
2023-05-07T06:46:31.223Z,25.50
2023-05-07T06:47:31.233Z,25.52
2023-05-07T06:48:31.272Z,25.53
2023-05-07T06:49:31.317Z,25.54
2023-05-07T06:50:31.395Z,25.54
2023-05-07T06:51:31.426Z,25.54
2023-05-07T06:52:31.541Z,25.55
2023-05-07T06:53:31.583Z,25.55
2023-05-07T06:54:31.629Z,25.56
2023-05-07T06:55:31.697Z,25.55
2023-05-07T06:56:31.765Z,25.55
2023-05-07T06:57:31.816Z,25.55
2023-05-07T06:58:31.882Z,25.54
2023-05-07T06:59:31.949Z,25.54
2023-05-07T07:00:31.984Z,25.54
2023-05-07T07:01:32.093Z,25.53
2023-05-07T07:02:32.100Z,25.53
2023-05-07T07:03:32.064Z,25.53
2023-05-07T07:04:32.073Z,25.53
2023-05-07T07:05:32.058Z,25.53
2023-05-07T07:06:32.112Z,25.53
2023-05-07T07:07:32.167Z,25.54
2023-05-07T07:08:32.225Z,25.54
2023-05-07T07:09:32.297Z,25.55
2023-05-07T07:10:32.451Z,25.56
2023-05-07T07:11:32.402Z,25.57
2023-05-07T07:12:32.459Z,25.58
2023-05-07T07:13:32.444Z,25.59
2023-05-07T07:14:32.434Z,25.59
2023-05-07T07:15:32.433Z,25.59
2023-05-07T07:16:32.561Z,25.59
2023-05-07T07:17:32.469Z,25.58
2023-05-07T07:18:32.431Z,25.58
2023-05-07T07:19:32.407Z,25.58
2023-05-07T07:20:32.424Z,25.58
2023-05-07T07:21:32.425Z,25.58
2023-05-07T07:22:32.426Z,25.58
2023-05-07T07:23:32.410Z,25.57
2023-05-07T07:24:32.387Z,25.58
2023-05-07T07:25:32.406Z,25.57
2023-05-07T07:26:32.473Z,25.58
2023-05-07T07:27:32.521Z,25.59
2023-05-07T07:28:32.587Z,25.59
2023-05-07T07:29:32.648Z,25.60
2023-05-07T07:30:32.716Z,25.60
2023-05-07T07:31:32.858Z,25.60
2023-05-07T07:32:32.870Z,25.60
2023-05-07T07:33:32.893Z,25.60
2023-05-07T07:34:32.972Z,25.61
2023-05-07T07:35:33.054Z,25.62
2023-05-07T07:36:42.908Z,25.61
2023-05-07T07:37:34.064Z,25.61
2023-05-07T07:38:33.072Z,25.61
2023-05-07T07:39:33.057Z,25.62
2023-05-07T07:40:33.068Z,25.62
2023-05-07T07:41:33.091Z,25.62
2023-05-07T07:42:33.045Z,25.62
2023-05-07T07:43:33.034Z,25.63
2023-05-07T07:44:33.039Z,25.62
2023-05-07T07:45:32.996Z,25.62
2023-05-07T07:46:33.032Z,25.64
2023-05-07T07:47:33.116Z,25.64
2023-05-07T07:48:33.238Z,25.64
2023-05-07T07:49:33.187Z,25.65
2023-05-07T07:50:44.465Z,25.64
2023-05-07T07:51:34.285Z,25.66
2023-05-07T07:52:33.255Z,25.65
2023-05-07T07:53:33.231Z,25.66
2023-05-07T07:54:33.247Z,25.66
2023-05-07T07:55:33.216Z,25.66
2023-05-07T07:56:33.266Z,25.67
2023-05-07T07:57:33.322Z,25.67
2023-05-07T07:58:33.202Z,25.67
2023-05-07T07:59:33.217Z,25.68
2023-05-07T08:00:33.241Z,25.68
2023-05-07T08:01:33.233Z,25.67
2023-05-07T08:02:33.419Z,25.68
2023-05-07T08:03:33.552Z,25.68
2023-05-07T08:04:33.399Z,25.68
2023-05-07T08:05:33.395Z,25.69
2023-05-07T08:06:33.499Z,25.69
2023-05-07T08:07:33.479Z,25.69
2023-05-07T08:08:33.551Z,25.69
2023-05-07T08:09:33.626Z,25.69
2023-05-07T08:10:33.666Z,25.70
2023-05-07T08:11:33.711Z,25.70
2023-05-07T08:12:33.744Z,25.71
2023-05-07T08:13:33.783Z,25.71
2023-05-07T08:14:33.872Z,25.70
2023-05-07T08:15:33.940Z,25.71
2023-05-07T08:16:33.987Z,25.72
2023-05-07T08:17:34.037Z,25.72
2023-05-07T08:18:34.077Z,25.72
2023-05-07T08:19:34.096Z,25.72
2023-05-07T08:20:34.077Z,25.72
2023-05-07T08:21:34.784Z,25.73
2023-05-07T08:22:34.202Z,25.73
2023-05-07T08:23:34.249Z,25.73
2023-05-07T08:24:34.326Z,25.74
2023-05-07T08:25:34.370Z,25.73
2023-05-07T08:26:34.441Z,25.74
2023-05-07T08:27:34.442Z,25.73
2023-05-07T08:28:34.491Z,25.74
2023-05-07T08:29:34.558Z,25.74
2023-05-07T08:30:34.627Z,25.73
2023-05-07T08:31:34.662Z,25.74
2023-05-07T08:32:34.753Z,25.74
2023-05-07T08:33:34.825Z,25.75
2023-05-07T08:34:34.814Z,25.74
2023-05-07T08:35:34.829Z,25.75
2023-05-07T08:36:34.921Z,25.75
2023-05-07T08:37:34.954Z,25.75
2023-05-07T08:38:35.025Z,25.74
2023-05-07T08:39:35.078Z,25.75
2023-05-07T08:40:35.102Z,25.75
2023-05-07T08:41:35.162Z,25.75
2023-05-07T08:42:35.211Z,25.75
2023-05-07T08:43:35.272Z,25.75
2023-05-07T08:44:35.309Z,25.76
2023-05-07T08:45:35.378Z,25.76
2023-05-07T08:46:35.479Z,25.75
2023-05-07T08:47:35.483Z,25.75
2023-05-07T08:48:35.500Z,25.76
2023-05-07T08:49:35.613Z,25.75
2023-05-07T08:50:35.619Z,25.76
2023-05-07T08:51:35.621Z,25.76
2023-05-07T08:52:35.798Z,25.76
2023-05-07T08:53:35.748Z,25.76
2023-05-07T08:54:35.785Z,25.76
2023-05-07T08:55:35.849Z,25.76
2023-05-07T08:56:35.866Z,25.77
2023-05-07T08:57:35.933Z,25.77
2023-05-07T08:58:35.985Z,25.76
2023-05-07T08:59:36.030Z,25.76
2023-05-07T09:00:36.049Z,25.77
2023-05-07T09:01:36.156Z,25.77
2023-05-07T09:02:36.246Z,25.77
2023-05-07T09:03:36.278Z,25.77
2023-05-07T09:04:36.254Z,25.78
2023-05-07T09:05:36.342Z,25.78
2023-05-07T09:06:36.381Z,25.78
2023-05-07T09:07:36.457Z,25.79
2023-05-07T09:08:36.467Z,25.79
2023-05-07T09:09:36.500Z,25.79
2023-05-07T09:10:36.529Z,25.80
2023-05-07T09:11:36.581Z,25.80
2023-05-07T09:12:36.719Z,25.80
2023-05-07T09:13:36.691Z,25.80
2023-05-07T09:14:36.765Z,25.80
2023-05-07T09:15:36.819Z,25.80
2023-05-07T09:16:36.998Z,25.80
2023-05-07T09:17:36.947Z,25.80
2023-05-07T09:18:36.934Z,25.81
2023-05-07T09:19:37.052Z,25.81
2023-05-07T09:20:37.051Z,25.81
2023-05-07T09:21:37.107Z,25.81
2023-05-07T09:22:37.186Z,25.82
2023-05-07T09:23:37.200Z,25.82
2023-05-07T09:24:37.316Z,25.82
2023-05-07T09:25:37.308Z,25.82
2023-05-07T09:26:37.292Z,25.83
2023-05-07T09:27:37.428Z,25.82
2023-05-07T09:28:37.406Z,25.82
2023-05-07T09:29:37.475Z,25.83
2023-05-07T09:30:37.537Z,25.84
2023-05-07T09:31:37.575Z,25.83
2023-05-07T09:32:37.634Z,25.84
2023-05-07T09:33:37.678Z,25.83
2023-05-07T09:34:37.677Z,25.83
2023-05-07T09:35:37.707Z,25.83
2023-05-07T09:36:37.742Z,25.83
2023-05-07T09:37:37.784Z,25.84
2023-05-07T09:38:37.833Z,25.83
2023-05-07T09:39:37.910Z,25.83
2023-05-07T09:40:38.071Z,25.83
2023-05-07T09:41:38.044Z,25.83
2023-05-07T09:42:38.027Z,25.84
2023-05-07T09:43:38.101Z,25.84
2023-05-07T09:44:38.068Z,25.83
2023-05-07T09:45:38.218Z,25.82
2023-05-07T09:46:38.178Z,25.83
2023-05-07T09:47:38.260Z,25.83
2023-05-07T09:48:38.285Z,25.82
2023-05-07T09:49:38.284Z,25.83
2023-05-07T09:50:38.303Z,25.84
2023-05-07T09:51:38.402Z,25.83
2023-05-07T09:52:38.416Z,25.84
2023-05-07T09:53:38.458Z,25.84
2023-05-07T09:54:38.565Z,25.84
2023-05-07T09:55:38.524Z,25.84
2023-05-07T09:56:38.633Z,25.85
2023-05-07T09:57:38.587Z,25.85
2023-05-07T09:58:38.649Z,25.85
2023-05-07T09:59:38.705Z,25.85
2023-05-07T10:00:38.731Z,25.86
2023-05-07T10:01:38.895Z,25.87
2023-05-07T10:02:38.979Z,25.87
2023-05-07T10:03:39.075Z,25.87
2023-05-07T10:04:38.905Z,25.87
2023-05-07T10:05:38.943Z,25.86
2023-05-07T10:06:38.959Z,25.87
2023-05-07T10:07:39.009Z,25.86
2023-05-07T10:08:39.053Z,25.87
2023-05-07T10:09:39.135Z,25.87
2023-05-07T10:10:39.149Z,25.88
2023-05-07T10:11:39.191Z,25.88
2023-05-07T10:12:39.275Z,25.88
2023-05-07T10:13:39.263Z,25.87
2023-05-07T10:14:39.286Z,25.87
2023-05-07T10:15:39.319Z,25.86
2023-05-07T10:16:39.388Z,25.87
2023-05-07T10:17:39.406Z,25.87
2023-05-07T10:18:39.419Z,25.87
2023-05-07T10:19:39.468Z,25.87
2023-05-07T10:20:39.525Z,25.88
2023-05-07T10:21:39.537Z,25.89
2023-05-07T10:22:39.588Z,25.89
2023-05-07T10:23:39.574Z,25.90
2023-05-07T10:24:39.654Z,25.90
2023-05-07T10:25:39.619Z,25.90
2023-05-07T10:26:39.665Z,25.89
2023-05-07T10:27:39.703Z,25.89
2023-05-07T10:28:39.870Z,25.89
2023-05-07T10:29:39.794Z,25.90
2023-05-07T10:30:39.944Z,25.91
2023-05-07T10:31:39.971Z,25.91
2023-05-07T10:32:40.047Z,25.91
2023-05-07T10:33:39.916Z,25.91
2023-05-07T10:34:39.925Z,25.93
2023-05-07T10:35:39.970Z,25.93
2023-05-07T10:36:39.990Z,25.93
2023-05-07T10:37:40.060Z,25.93
2023-05-07T10:38:40.093Z,25.93
2023-05-07T10:39:40.100Z,25.93
2023-05-07T10:40:40.099Z,25.93
2023-05-07T10:41:40.182Z,25.94
2023-05-07T10:42:40.199Z,25.94
2023-05-07T10:43:40.207Z,25.95
2023-05-07T10:44:40.307Z,25.94
2023-05-07T10:45:40.311Z,25.95
2023-05-07T10:46:40.567Z,25.96
2023-05-07T10:47:40.408Z,25.95
2023-05-07T10:48:40.428Z,25.96
2023-05-07T10:49:40.545Z,25.96
2023-05-07T10:50:40.593Z,25.96
2023-05-07T10:51:40.595Z,25.97
2023-05-07T10:52:40.666Z,25.97
2023-05-07T10:53:40.680Z,25.97
2023-05-07T10:54:40.715Z,25.97
2023-05-07T10:55:40.738Z,25.98
2023-05-07T10:56:40.754Z,25.97
2023-05-07T10:57:40.766Z,25.98
2023-05-07T10:58:40.803Z,25.99
2023-05-07T10:59:40.827Z,25.99
2023-05-07T11:00:40.858Z,25.99
2023-05-07T11:01:40.961Z,26.00
2023-05-07T11:02:40.968Z,25.99
2023-05-07T11:03:40.946Z,26.00
2023-05-07T11:04:41.091Z,26.00
2023-05-07T11:05:41.078Z,26.00
2023-05-07T11:06:41.073Z,26.00
2023-05-07T11:07:41.133Z,26.00
2023-05-07T11:08:41.185Z,26.01
2023-05-07T11:09:41.217Z,26.00
2023-05-07T11:10:41.304Z,26.01
2023-05-07T11:11:41.329Z,26.00
2023-05-07T11:12:41.388Z,26.01
2023-05-07T11:13:41.423Z,26.02
2023-05-07T11:14:41.427Z,26.02
2023-05-07T11:15:41.501Z,26.01
2023-05-07T11:16:41.718Z,26.02
2023-05-07T11:17:41.573Z,26.02
2023-05-07T11:18:41.597Z,26.03
2023-05-07T11:19:41.666Z,26.02
2023-05-07T11:20:41.674Z,26.03
2023-05-07T11:21:41.718Z,26.04
2023-05-07T11:22:41.798Z,26.04
2023-05-07T11:23:41.804Z,26.04
2023-05-07T11:24:41.806Z,26.03
2023-05-07T11:25:41.811Z,26.05
2023-05-07T11:26:41.870Z,26.05
2023-05-07T11:27:41.860Z,26.05
2023-05-07T11:28:41.864Z,26.05
2023-05-07T11:29:41.886Z,26.07
2023-05-07T11:30:41.910Z,26.06
2023-05-07T11:31:41.953Z,26.06
2023-05-07T11:32:41.975Z,26.06
2023-05-07T11:33:41.994Z,26.05
2023-05-07T11:34:42.030Z,26.05
2023-05-07T11:35:42.014Z,26.04
2023-05-07T11:36:42.096Z,26.04
2023-05-07T11:37:42.104Z,26.03
2023-05-07T11:38:42.103Z,26.03
2023-05-07T11:39:42.122Z,26.03
2023-05-07T11:40:42.154Z,26.03
2023-05-07T11:41:42.228Z,26.03
2023-05-07T11:42:42.251Z,26.03
2023-05-07T11:43:42.287Z,26.04
2023-05-07T11:44:42.278Z,26.05
2023-05-07T11:45:42.331Z,26.05
2023-05-07T11:46:42.318Z,26.05
2023-05-07T11:47:42.479Z,26.05
2023-05-07T11:48:42.382Z,26.06
2023-05-07T11:49:42.395Z,26.06
2023-05-07T11:50:42.391Z,26.05
2023-05-07T11:51:42.450Z,26.06
2023-05-07T11:52:42.510Z,26.06
2023-05-07T11:53:42.552Z,26.06
2023-05-07T11:54:42.551Z,26.06
2023-05-07T11:55:42.634Z,26.05
2023-05-07T11:56:42.685Z,26.06
2023-05-07T11:57:42.740Z,26.05
2023-05-07T11:58:42.762Z,26.05
2023-05-07T11:59:42.786Z,26.06
2023-05-07T12:00:42.871Z,26.05
2023-05-07T12:01:42.838Z,26.05
2023-05-07T12:02:43.076Z,26.05
2023-05-07T12:03:42.958Z,26.05
2023-05-07T12:04:43.005Z,26.05
2023-05-07T12:05:42.994Z,26.04
2023-05-07T12:06:42.948Z,26.05
2023-05-07T12:07:43.027Z,26.06
2023-05-07T12:08:43.660Z,26.05
2023-05-07T12:09:43.028Z,26.06
2023-05-07T12:10:43.043Z,26.06
2023-05-07T12:11:43.096Z,26.06
2023-05-07T12:12:43.437Z,26.07
2023-05-07T12:13:43.176Z,26.07
2023-05-07T12:14:43.184Z,26.07
2023-05-07T12:15:43.189Z,26.07
2023-05-07T12:16:43.217Z,26.07
2023-05-07T12:17:43.265Z,26.07
2023-05-07T12:18:43.286Z,26.07
2023-05-07T12:19:43.319Z,26.08
2023-05-07T12:20:43.470Z,26.08
2023-05-07T12:21:43.437Z,26.08
2023-05-07T12:22:43.391Z,26.08
2023-05-07T12:23:43.500Z,26.08
2023-05-07T12:24:43.568Z,26.09
2023-05-07T12:25:43.562Z,26.08
2023-05-07T12:26:43.514Z,26.08
2023-05-07T12:27:43.577Z,26.09
2023-05-07T12:28:43.563Z,26.09
2023-05-07T12:29:43.572Z,26.09
2023-05-07T12:30:43.601Z,26.10
2023-05-07T12:31:43.656Z,26.09
2023-05-07T12:32:43.709Z,26.10
2023-05-07T12:33:43.694Z,26.10
2023-05-07T12:34:45.303Z,26.10
2023-05-07T12:35:43.669Z,26.11
2023-05-07T12:36:43.697Z,26.11
2023-05-07T12:37:43.753Z,26.11
2023-05-07T12:38:43.713Z,26.11
2023-05-07T12:39:43.748Z,26.11
2023-05-07T12:40:43.765Z,26.11
2023-05-07T12:41:43.789Z,26.12
2023-05-07T12:42:43.796Z,26.12
2023-05-07T12:43:43.794Z,26.12
2023-05-07T12:44:43.840Z,26.12
2023-05-07T12:45:43.836Z,26.12
2023-05-07T12:46:43.928Z,26.12
2023-05-07T12:47:43.912Z,26.13
2023-05-07T12:48:43.864Z,26.14
2023-05-07T12:49:43.888Z,26.14
2023-05-07T12:50:43.974Z,26.14
2023-05-07T12:51:43.973Z,26.14
2023-05-07T12:52:43.977Z,26.16